createdAt,value
2022-11-24T00:01:08.775Z,88.76
2022-11-24T00:03:36.739Z,89.70
2022-11-24T00:06:12.155Z,90.92
2022-11-24T00:08:41.349Z,91.79
2022-11-24T00:11:11.060Z,89.88
2022-11-24T00:13:42.051Z,90.64
2022-11-24T00:16:14.716Z,90.22
2022-11-24T00:18:44.480Z,89.57
2022-11-24T00:21:13.197Z,88.56
2022-11-24T00:23:40.805Z,90.94
2022-11-24T00:26:17.009Z,92.59
2022-11-24T00:28:46.509Z,91.37
2022-11-24T00:31:24.606Z,89.22
2022-11-24T00:33:55.037Z,87.98
2022-11-24T00:36:24.396Z,88.15
2022-11-24T00:39:00.095Z,87.28
2022-11-24T00:41:28.656Z,86.43
2022-11-24T00:43:56.919Z,86.59
2022-11-24T00:46:24.666Z,86.81
2022-11-24T00:48:52.230Z,86.64
2022-11-24T00:51:22.954Z,86.92
2022-11-24T00:53:50.367Z,85.85
2022-11-24T00:56:17.759Z,87.22
2022-11-24T00:58:45.817Z,87.14
2022-11-24T01:01:16.610Z,86.80
2022-11-24T01:03:44.378Z,86.42
2022-11-24T01:06:15.852Z,84.86
2022-11-24T01:08:43.416Z,86.06
2022-11-24T01:11:18.128Z,85.68
2022-11-24T01:13:49.751Z,86.11
2022-11-24T01:16:23.387Z,86.51
2022-11-24T01:18:51.213Z,86.15
2022-11-24T01:21:19.107Z,86.54
2022-11-24T01:23:47.318Z,86.73
2022-11-24T01:26:18.234Z,86.71
2022-11-24T01:28:47.674Z,86.59
2022-11-24T01:31:16.441Z,86.11
2022-11-24T01:33:44.027Z,86.25
2022-11-24T01:36:11.559Z,85.99
2022-11-24T01:38:39.172Z,87.43
2022-11-24T01:41:08.206Z,87.08
2022-11-24T01:43:35.489Z,87.32
2022-11-24T01:46:34.264Z,87.79
2022-11-24T01:49:18.457Z,88.22
2022-11-24T01:51:54.866Z,87.84
2022-11-24T01:54:36.488Z,89.39
2022-11-24T01:57:12.926Z,89.75
2022-11-24T01:59:41.902Z,88.94
2022-11-24T02:02:09.738Z,89.54
2022-11-24T02:04:38.330Z,90.77
2022-11-24T02:07:07.434Z,92.02
2022-11-24T02:09:48.020Z,89.45
2022-11-24T02:12:15.580Z,87.83
2022-11-24T02:14:44.837Z,87.80
2022-11-24T02:17:12.089Z,87.68
2022-11-24T02:19:39.611Z,87.87
2022-11-24T02:22:22.665Z,88.82
2022-11-24T02:24:56.196Z,89.20
2022-11-24T02:27:23.572Z,91.98
2022-11-24T02:29:52.167Z,89.90
2022-11-24T02:32:20.610Z,88.22
2022-11-24T02:34:47.819Z,88.30
2022-11-24T02:37:15.370Z,88.16
2022-11-24T02:39:42.682Z,89.28
2022-11-24T02:42:13.805Z,89.21
2022-11-24T02:44:47.183Z,88.75
2022-11-24T02:47:14.366Z,87.21
2022-11-24T02:49:42.020Z,86.73
2022-11-24T02:52:09.525Z,87.19
2022-11-24T02:54:37.156Z,87.25
2022-11-24T02:57:05.143Z,87.37
2022-11-24T02:59:32.560Z,87.47
2022-11-24T03:02:00.011Z,89.28
2022-11-24T03:04:27.748Z,86.98
2022-11-24T03:06:55.022Z,86.50
2022-11-24T03:09:22.273Z,87.00
2022-11-24T03:11:49.862Z,86.68
2022-11-24T03:14:17.173Z,87.28
2022-11-24T03:16:44.520Z,86.57
2022-11-24T03:19:12.347Z,87.62
2022-11-24T03:21:39.837Z,87.54
2022-11-24T03:24:07.170Z,88.11
2022-11-24T03:26:35.615Z,87.68
2022-11-24T03:29:03.031Z,86.93
2022-11-24T03:31:30.330Z,87.45
2022-11-24T03:33:58.092Z,85.60
2022-11-24T03:36:25.576Z,86.78
2022-11-24T03:38:53.067Z,88.23
2022-11-24T03:41:20.736Z,87.40
2022-11-24T03:43:47.922Z,87.24
2022-11-24T03:46:17.042Z,86.82
2022-11-24T03:48:46.070Z,88.28
2022-11-24T03:51:13.349Z,88.32
2022-11-24T03:53:40.896Z,89.53
2022-11-24T03:56:08.578Z,88.90
2022-11-24T03:58:35.967Z,89.59
2022-11-24T04:01:03.782Z,89.42
2022-11-24T04:03:31.442Z,89.80
2022-11-24T04:05:58.914Z,89.73
2022-11-24T04:08:26.229Z,89.90
2022-11-24T04:10:54.653Z,89.66
2022-11-24T04:13:25.620Z,89.50
2022-11-24T04:15:53.715Z,89.07
2022-11-24T04:18:22.177Z,88.93
2022-11-24T04:20:51.076Z,89.61
2022-11-24T04:23:18.878Z,90.02
2022-11-24T04:25:46.942Z,90.23
2022-11-24T04:28:14.168Z,89.96
2022-11-24T04:30:44.981Z,89.18
2022-11-24T04:33:13.104Z,88.90
2022-11-24T04:35:40.419Z,87.60
2022-11-24T04:38:07.744Z,86.64
2022-11-24T04:40:35.361Z,87.14
2022-11-24T04:43:02.688Z,87.30
2022-11-24T04:45:29.953Z,87.87
2022-11-24T04:47:57.543Z,87.16
2022-11-24T04:50:24.823Z,88.01
2022-11-24T04:52:52.687Z,89.54
2022-11-24T04:55:20.380Z,89.59
2022-11-24T04:57:47.917Z,88.73
2022-11-24T05:00:15.726Z,87.65
2022-11-24T05:02:43.348Z,89.35
2022-11-24T05:05:10.842Z,89.36
2022-11-24T06:09:54.950Z,97.92
2022-11-24T06:12:22.980Z,97.92
2022-11-24T06:14:50.338Z,99.20
2022-11-24T06:17:17.582Z,98.03
2022-11-24T06:19:48.097Z,96.95
2022-11-24T06:22:15.413Z,95.89
2022-11-24T06:24:42.760Z,95.38
2022-11-24T06:27:10.403Z,95.37
2022-11-24T06:29:38.023Z,94.71
2022-11-24T06:32:06.048Z,93.63
2022-11-24T06:34:33.862Z,92.40
2022-11-24T06:37:01.427Z,91.98
2022-11-24T06:39:28.856Z,91.51
2022-11-24T06:41:56.559Z,91.48
2022-11-24T06:44:24.253Z,90.96
2022-11-24T06:46:51.629Z,90.49
2022-11-24T06:49:19.401Z,89.69
2022-11-24T06:51:46.745Z,88.84
2022-11-24T06:54:20.213Z,88.85
2022-11-24T06:56:48.158Z,88.17
2022-11-24T06:59:21.694Z,88.36
2022-11-24T07:01:49.477Z,88.24
2022-11-24T07:04:16.999Z,86.89
2022-11-24T07:09:55.213Z,83.95
2022-11-24T07:12:24.421Z,83.95
2022-11-24T07:14:51.789Z,85.70
2022-11-24T07:17:19.081Z,84.54
2022-11-24T07:19:46.738Z,86.26
2022-11-24T07:22:14.098Z,85.84
2022-11-24T07:24:41.705Z,85.21
2022-11-24T07:27:09.341Z,85.71
2022-11-24T07:29:36.697Z,85.69
2022-11-24T07:32:05.876Z,84.60
2022-11-24T07:34:33.839Z,84.83
2022-11-24T07:37:01.512Z,85.18
2022-11-24T07:39:28.941Z,87.33
2022-11-24T07:41:58.154Z,88.25
2022-11-24T07:44:25.605Z,88.58
2022-11-24T07:46:53.563Z,86.63
2022-11-24T07:49:21.338Z,86.06
2022-11-24T07:51:48.723Z,84.53
2022-11-24T07:54:15.990Z,84.15
2022-11-24T07:56:43.715Z,84.23
2022-11-24T07:59:11.050Z,86.03
2022-11-24T08:01:41.256Z,84.34
2022-11-24T08:04:09.092Z,82.17
2022-11-24T08:06:40.863Z,83.84
2022-11-24T08:09:12.233Z,83.52
2022-11-24T08:11:39.661Z,84.78
2022-11-24T08:14:07.106Z,84.50
2022-11-24T08:16:34.828Z,84.16
2022-11-24T08:19:02.317Z,83.63
2022-11-24T08:21:29.742Z,85.09
2022-11-24T08:23:59.056Z,85.51
2022-11-24T08:26:27.110Z,85.20
2022-11-24T08:28:57.779Z,84.56
2022-11-24T08:31:33.183Z,85.98
2022-11-24T08:34:02.231Z,86.83
2022-11-24T08:36:30.441Z,87.70
2022-11-24T08:39:00.106Z,88.21
2022-11-24T08:41:28.926Z,90.19
2022-11-24T08:43:56.759Z,91.03
2022-11-24T08:46:24.232Z,90.97
2022-11-24T08:48:53.329Z,91.65
2022-11-24T08:51:26.444Z,91.92
2022-11-24T08:53:58.752Z,91.03
2022-11-24T08:56:28.384Z,91.83
2022-11-24T08:58:56.258Z,93.05
2022-11-24T09:01:23.938Z,93.13
2022-11-24T09:03:52.408Z,93.97
2022-11-24T09:06:25.286Z,93.00
2022-11-24T09:08:56.382Z,92.98
2022-11-24T09:11:25.384Z,94.04
2022-11-24T09:13:54.821Z,94.45
2022-11-24T09:16:27.825Z,94.36
2022-11-24T09:19:01.147Z,93.83
2022-11-24T09:21:30.520Z,93.67
2022-11-24T09:23:58.560Z,93.35
2022-11-24T09:26:31.487Z,92.87
2022-11-24T09:29:01.199Z,93.34
2022-11-24T09:31:31.559Z,94.11
2022-11-24T09:33:59.774Z,93.32
2022-11-24T09:36:28.393Z,94.90
2022-11-24T09:38:55.990Z,92.83
2022-11-24T09:41:39.696Z,92.68
2022-11-24T09:44:37.932Z,95.63
2022-11-24T09:47:17.531Z,94.35
2022-11-24T09:49:57.134Z,94.60
2022-11-24T09:53:01.290Z,94.89
2022-11-24T09:55:54.953Z,94.55
2022-11-24T09:58:48.618Z,96.18
2022-11-24T10:01:19.165Z,94.02
2022-11-24T10:03:59.847Z,92.80
2022-11-24T10:06:41.149Z,92.59
2022-11-24T10:09:31.527Z,93.55
2022-11-24T10:12:33.295Z,94.78
2022-11-24T10:15:56.316Z,91.22
2022-11-24T10:18:49.247Z,90.80
2022-11-24T10:21:55.289Z,91.10
2022-11-24T10:24:44.516Z,85.76
2022-11-24T10:27:19.414Z,87.68
2022-11-24T10:29:51.803Z,86.06
2022-11-24T10:32:31.032Z,86.42
2022-11-24T10:35:16.310Z,86.03
2022-11-24T10:37:58.422Z,84.35
2022-11-24T10:43:17.340Z,84.17
2022-11-24T10:45:45.926Z,83.05
2022-11-24T10:48:24.495Z,83.18
2022-11-24T10:51:16.108Z,84.87
2022-11-24T10:53:44.419Z,81.93
2022-11-24T10:56:12.145Z,81.59
2022-11-24T10:58:39.640Z,83.90
2022-11-24T11:01:13.360Z,83.57
2022-11-24T11:03:51.305Z,84.40
2022-11-24T11:06:29.860Z,84.58
2022-11-24T11:09:06.960Z,85.75
2022-11-24T11:11:36.181Z,87.62
2022-11-24T11:14:10.418Z,86.20
2022-11-24T11:16:43.838Z,85.54
2022-11-24T11:19:55.467Z,84.65
2022-11-24T11:22:32.116Z,85.26
2022-11-24T11:25:19.429Z,85.61
2022-11-24T11:27:46.688Z,85.11
2022-11-24T11:36:16.122Z,85.46
2022-11-24T11:38:44.461Z,85.15
2022-11-24T11:41:30.983Z,84.26
2022-11-24T11:44:26.277Z,84.15
2022-11-24T11:46:58.874Z,85.23
2022-11-24T11:49:26.765Z,84.72
2022-11-24T11:52:13.847Z,82.25
2022-11-24T11:55:12.489Z,83.72
2022-11-24T11:57:58.203Z,84.77
2022-11-24T12:00:25.893Z,83.57
2022-11-24T12:03:31.089Z,82.70
2022-11-24T12:06:15.550Z,83.18
2022-11-24T12:09:19.458Z,82.47
2022-11-24T12:12:18.042Z,82.21
2022-11-24T12:15:24.141Z,80.49
2022-11-24T12:17:55.047Z,83.46
2022-11-24T12:20:56.693Z,82.37
2022-11-24T12:23:40.701Z,81.41
2022-11-24T12:26:53.775Z,80.94
2022-11-24T12:29:48.413Z,83.06
2022-11-24T12:32:29.776Z,82.54
2022-11-24T12:35:15.639Z,82.22
2022-11-24T12:38:21.479Z,81.53
2022-11-24T12:43:58.754Z,82.29
2022-11-24T12:46:45.209Z,82.84
2022-11-24T12:49:38.560Z,82.09
2022-11-24T12:52:22.876Z,82.27
2022-11-24T12:54:50.568Z,82.78
2022-11-24T12:57:53.307Z,81.34
2022-11-24T13:00:37.481Z,82.92
2022-11-24T13:03:10.275Z,81.61
2022-11-24T13:05:47.315Z,79.07
2022-11-24T13:08:15.660Z,80.06
2022-11-24T13:10:58.834Z,80.78
2022-11-24T13:14:02.446Z,79.34
2022-11-24T13:16:48.562Z,79.55
2022-11-24T13:19:22.045Z,78.75
2022-11-24T13:22:07.071Z,77.43
2022-11-24T13:24:36.974Z,75.90
2022-11-24T13:27:27.827Z,76.43
2022-11-24T13:29:55.564Z,75.11
2022-11-24T13:32:23.268Z,75.79
2022-11-24T13:34:55.174Z,74.99
2022-11-24T13:37:31.808Z,75.71
2022-11-24T13:40:14.346Z,75.38
2022-11-24T13:43:03.159Z,76.75
2022-11-24T13:45:40.204Z,76.83
2022-11-24T13:48:28.469Z,75.77
2022-11-24T13:51:09.520Z,75.39
2022-11-24T13:53:49.218Z,74.45
2022-11-24T13:56:16.451Z,75.62
2022-11-24T13:58:44.102Z,77.09
2022-11-24T14:01:22.180Z,76.77
2022-11-24T14:04:35.361Z,77.51
2022-11-24T14:09:55.868Z,74.80
2022-11-24T14:12:25.419Z,74.80
2022-11-24T14:14:57.036Z,76.84
2022-11-24T14:17:28.976Z,76.21
2022-11-24T14:19:58.322Z,74.67
2022-11-24T14:22:35.302Z,73.51
2022-11-24T14:25:04.015Z,73.59
2022-11-24T14:27:33.851Z,71.59
2022-11-24T14:30:18.656Z,71.87
2022-11-24T14:32:56.101Z,70.41
2022-11-24T14:35:25.471Z,70.54
2022-11-24T14:37:53.212Z,71.05
2022-11-24T14:40:41.080Z,71.22
2022-11-24T14:43:22.912Z,72.16
2022-11-24T14:45:59.516Z,72.57
2022-11-24T14:48:34.897Z,72.37
2022-11-24T14:51:13.682Z,71.13
2022-11-24T14:53:43.383Z,70.29
2022-11-24T14:56:30.854Z,70.02
2022-11-24T14:58:59.516Z,70.26
2022-11-24T15:01:27.305Z,70.82
2022-11-24T15:07:21.023Z,69.85
2022-11-24T15:09:48.368Z,68.63
2022-11-24T15:12:28.957Z,70.84
2022-11-24T15:15:05.487Z,70.03
2022-11-24T15:17:33.400Z,70.46
2022-11-24T15:20:17.236Z,70.72
2022-11-24T15:22:45.280Z,71.01
2022-11-24T15:25:33.949Z,71.36
2022-11-24T15:28:01.714Z,71.35
2022-11-24T15:30:30.354Z,69.55
2022-11-24T15:32:59.535Z,69.80
2022-11-24T15:35:31.793Z,70.68
2022-11-24T15:37:59.233Z,70.45
2022-11-24T15:40:26.901Z,70.79
2022-11-24T15:42:56.032Z,71.39
2022-11-24T15:45:26.709Z,71.30
2022-11-24T15:47:54.415Z,71.09
2022-11-24T15:50:22.233Z,71.83
2022-11-24T15:52:49.707Z,71.69
2022-11-24T15:55:22.568Z,72.07
2022-11-24T15:57:49.947Z,71.97
2022-11-24T16:00:22.979Z,71.98
2022-11-24T16:02:50.932Z,72.63
2022-11-24T16:05:18.661Z,72.55
2022-11-24T16:07:46.198Z,72.91
2022-11-24T16:10:23.935Z,72.72
2022-11-24T16:12:51.321Z,72.86
2022-11-24T16:15:19.306Z,74.27
2022-11-24T16:17:46.967Z,74.14
2022-11-24T16:20:14.745Z,73.87
2022-11-24T16:22:42.785Z,74.20
2022-11-24T16:25:10.858Z,74.75
2022-11-24T16:27:38.514Z,74.09
2022-11-24T16:30:07.440Z,74.67
2022-11-24T16:32:35.250Z,75.63
2022-11-24T16:35:04.825Z,73.67
2022-11-24T16:37:33.122Z,74.18
2022-11-24T16:40:02.657Z,74.72
2022-11-24T16:42:30.887Z,75.07
2022-11-24T16:44:58.780Z,72.71
2022-11-24T16:47:26.074Z,73.74
2022-11-24T16:49:53.617Z,73.98
2022-11-24T16:52:21.282Z,73.12
2022-11-24T16:54:48.694Z,74.06
2022-11-24T16:57:17.101Z,73.84
2022-11-24T16:59:48.877Z,73.96
2022-11-24T17:02:16.297Z,74.61
2022-11-24T17:04:43.660Z,75.29
2022-11-24T17:07:11.436Z,76.20
2022-11-24T17:09:40.739Z,75.48
2022-11-24T17:12:08.393Z,74.91
2022-11-24T17:14:37.055Z,75.29
2022-11-24T17:17:04.951Z,75.97
2022-11-24T17:19:32.415Z,76.36
2022-11-24T17:22:00.686Z,75.02
2022-11-24T17:24:28.567Z,74.92
2022-11-24T17:26:55.987Z,76.12
2022-11-24T17:29:24.828Z,75.16
2022-11-24T17:31:52.383Z,74.96
2022-11-24T17:34:19.815Z,74.37
2022-11-24T17:36:47.639Z,73.99
2022-11-24T17:39:18.002Z,73.79
2022-11-24T17:41:48.227Z,74.16
2022-11-24T17:44:16.053Z,74.47
2022-11-24T17:46:43.475Z,73.64
2022-11-24T17:49:13.694Z,74.54
2022-11-24T17:51:41.405Z,74.46
2022-11-24T17:54:44.806Z,72.22
2022-11-24T17:56:57.239Z,74.00
2022-11-24T17:59:24.597Z,74.25
2022-11-24T18:01:52.383Z,73.73
2022-11-24T18:04:20.531Z,72.74
2022-11-24T18:06:47.810Z,72.62
2022-11-24T18:09:15.470Z,72.95
2022-11-24T18:11:43.306Z,73.87
2022-11-24T18:14:10.674Z,73.33
2022-11-24T18:16:38.065Z,72.92
2022-11-24T18:19:10.991Z,72.96
2022-11-24T18:21:40.663Z,74.35
2022-11-24T18:24:09.767Z,74.50
2022-11-24T18:26:37.934Z,73.30
2022-11-24T18:29:05.522Z,73.31
2022-11-24T18:31:35.664Z,73.60
2022-11-24T18:34:05.396Z,74.55
2022-11-24T18:36:34.520Z,74.62
2022-11-24T18:39:03.712Z,72.51
2022-11-24T18:41:31.141Z,73.75
2022-11-24T18:44:02.539Z,73.54
2022-11-24T18:46:30.198Z,73.01
2022-11-24T18:48:57.931Z,74.65
2022-11-24T18:51:27.312Z,74.89
2022-11-24T18:53:54.972Z,73.81
2022-11-24T18:56:22.616Z,74.89
2022-11-24T18:58:54.821Z,73.49
2022-11-24T19:01:25.456Z,73.98
2022-11-24T19:03:57.276Z,74.17
2022-11-24T19:06:33.780Z,74.31
2022-11-24T19:09:05.510Z,74.74
2022-11-24T19:11:35.955Z,74.26
2022-11-24T19:14:06.041Z,72.36
2022-11-24T19:16:34.158Z,73.28
2022-11-24T19:19:03.191Z,72.50
2022-11-24T19:21:32.976Z,72.00
2022-11-24T19:24:04.797Z,71.42
2022-11-24T19:26:37.654Z,72.10
2022-11-24T19:29:05.884Z,70.74
2022-11-24T19:31:34.669Z,70.80
2022-11-24T19:34:03.212Z,70.23
2022-11-24T19:36:31.132Z,69.76
2022-11-24T19:38:59.156Z,68.78
2022-11-24T19:41:28.947Z,69.75
2022-11-24T19:43:56.871Z,69.58
2022-11-24T19:46:27.657Z,71.02
2022-11-24T19:48:59.496Z,71.12
2022-11-24T19:51:32.849Z,70.62
2022-11-24T19:54:00.980Z,71.92
2022-11-24T19:56:31.640Z,70.51
2022-11-24T19:58:59.128Z,70.74
2022-11-24T20:01:32.086Z,71.37
2022-11-24T20:04:01.213Z,72.00
2022-11-24T20:06:31.360Z,72.49
2022-11-24T20:09:00.810Z,72.69
2022-11-24T20:11:29.292Z,72.05
2022-11-24T20:13:58.014Z,71.23
2022-11-24T20:16:29.752Z,73.30
2022-11-24T20:19:01.035Z,73.39
2022-11-24T20:21:31.711Z,72.35
2022-11-24T20:24:20.638Z,73.49
2022-11-24T20:26:51.672Z,73.59
2022-11-24T20:29:19.774Z,74.24
2022-11-24T20:31:50.529Z,74.02
2022-11-24T20:34:18.699Z,71.68
2022-11-24T20:36:47.718Z,72.70
2022-11-24T20:39:18.785Z,73.18
2022-11-24T20:41:46.949Z,73.68
2022-11-24T20:44:17.046Z,74.11
2022-11-24T20:46:45.851Z,73.78
2022-11-24T20:49:16.996Z,74.18
2022-11-24T20:51:47.220Z,74.89
2022-11-24T20:54:17.170Z,73.87
2022-11-24T20:56:46.710Z,74.57
2022-11-24T20:59:19.629Z,72.61
2022-11-24T21:01:48.766Z,75.17
2022-11-24T21:04:21.534Z,74.71
2022-11-24T21:06:49.480Z,75.72
2022-11-24T21:09:17.551Z,75.87
2022-11-24T21:11:45.313Z,75.90
2022-11-24T21:14:13.570Z,76.21
2022-11-24T21:16:42.187Z,76.40
2022-11-24T21:19:15.198Z,75.15
2022-11-24T21:21:43.269Z,76.98
2022-11-24T21:24:16.350Z,75.56
2022-11-24T21:26:47.667Z,77.01
2022-11-24T21:29:18.023Z,76.26
2022-11-24T21:31:45.805Z,75.71
2022-11-24T21:34:19.122Z,75.32
2022-11-24T21:36:47.348Z,76.65
2022-11-24T21:39:15.520Z,75.64
2022-11-24T21:41:43.457Z,76.26
2022-11-24T21:44:13.214Z,74.51
2022-11-24T21:46:46.244Z,73.26
2022-11-24T21:49:18.837Z,73.30
2022-11-24T21:51:46.176Z,75.41
2022-11-24T21:54:13.693Z,74.56
2022-11-24T21:56:41.409Z,75.57
2022-11-24T21:59:08.871Z,75.56
2022-11-24T22:01:36.268Z,75.40
2022-11-24T22:04:04.108Z,75.12
2022-11-24T22:06:33.472Z,75.00
2022-11-24T22:09:00.701Z,75.83
2022-11-24T22:11:28.329Z,75.75
2022-11-24T22:13:55.625Z,74.95
2022-11-24T22:16:24.511Z,74.27
2022-11-24T22:18:52.077Z,74.41
2022-11-24T22:21:25.815Z,75.03
2022-11-24T22:23:53.746Z,74.62
2022-11-24T22:26:22.893Z,75.43
2022-11-24T22:28:51.127Z,75.91
2022-11-24T22:31:30.943Z,75.46
2022-11-24T22:33:59.742Z,74.85
2022-11-24T22:36:29.210Z,75.72
2022-11-24T22:38:58.544Z,74.03
2022-11-24T22:41:25.663Z,73.43
2022-11-24T22:43:53.923Z,73.57
2022-11-24T22:46:27.131Z,74.11
2022-11-24T22:48:55.619Z,71.83
2022-11-24T22:51:26.295Z,71.82
2022-11-24T22:53:58.288Z,72.26
2022-11-24T22:56:32.544Z,71.16
2022-11-24T22:59:00.882Z,72.06
2022-11-24T23:01:29.691Z,71.21
2022-11-24T23:03:57.513Z,72.17
2022-11-24T23:06:29.658Z,71.22
2022-11-24T23:08:58.693Z,73.18
2022-11-24T23:11:36.554Z,73.90
2022-11-24T23:14:06.604Z,72.54
2022-11-24T23:16:34.111Z,74.13
2022-11-24T23:19:01.370Z,74.04
2022-11-24T23:21:31.266Z,73.76
2022-11-24T23:24:00.345Z,74.43
2022-11-24T23:26:30.476Z,74.04
2022-11-24T23:28:58.414Z,75.52
2022-11-24T23:31:30.283Z,74.92
2022-11-24T23:33:59.794Z,75.67
2022-11-24T23:36:28.214Z,74.42
2022-11-24T23:38:55.848Z,75.01
2022-11-24T23:41:25.407Z,75.60
2022-11-24T23:43:53.371Z,74.75
2022-11-24T23:46:23.189Z,76.95
2022-11-24T23:48:53.042Z,76.42
2022-11-24T23:51:31.600Z,76.16
2022-11-24T23:54:00.215Z,74.79
2022-11-24T23:56:32.775Z,75.03
2022-11-24T23:59:04.902Z,75.01
